sensor_id;sensor_type;location;lat;lon;timestamp;P1;durP1;ratioP1;P2;durP2;ratioP2
43650;SDS011;29247;50.944;5.382;2023-01-29T00:02:02;44.15;;;20.60;;
43650;SDS011;29247;50.944;5.382;2023-01-29T00:04:30;42.22;;;20.98;;
43650;SDS011;29247;50.944;5.382;2023-01-29T00:06:56;40.08;;;20.23;;
43650;SDS011;29247;50.944;5.382;2023-01-29T00:09:21;42.20;;;21.13;;
43650;SDS011;29247;50.944;5.382;2023-01-29T00:11:50;40.45;;;19.42;;
43650;SDS011;29247;50.944;5.382;2023-01-29T00:14:16;32.10;;;17.38;;
43650;SDS011;29247;50.944;5.382;2023-01-29T00:16:42;44.67;;;20.13;;
43650;SDS011;29247;50.944;5.382;2023-01-29T00:19:08;41.15;;;19.23;;
43650;SDS011;29247;50.944;5.382;2023-01-29T00:21:34;39.60;;;19.35;;
43650;SDS011;29247;50.944;5.382;2023-01-29T00:24:00;36.97;;;17.83;;
43650;SDS011;29247;50.944;5.382;2023-01-29T00:26:26;42.08;;;18.40;;
43650;SDS011;29247;50.944;5.382;2023-01-29T00:28:52;40.17;;;19.10;;
43650;SDS011;29247;50.944;5.382;2023-01-29T00:31:21;38.72;;;18.45;;
43650;SDS011;29247;50.944;5.382;2023-01-29T00:33:48;39.53;;;18.13;;
43650;SDS011;29247;50.944;5.382;2023-01-29T00:36:19;40.08;;;19.50;;
43650;SDS011;29247;50.944;5.382;2023-01-29T00:38:52;36.45;;;18.65;;
43650;SDS011;29247;50.944;5.382;2023-01-29T00:41:30;38.22;;;18.85;;
43650;SDS011;29247;50.944;5.382;2023-01-29T00:44:15;40.30;;;17.77;;
43650;SDS011;29247;50.944;5.382;2023-01-29T00:47:01;44.63;;;19.10;;
43650;SDS011;29247;50.944;5.382;2023-01-29T00:49:27;39.92;;;21.02;;
43650;SDS011;29247;50.944;5.382;2023-01-29T00:51:54;42.53;;;21.80;;
43650;SDS011;29247;50.944;5.382;2023-01-29T00:54:38;45.38;;;20.45;;
43650;SDS011;29247;50.944;5.382;2023-01-29T00:57:05;43.17;;;21.38;;
43650;SDS011;29247;50.944;5.382;2023-01-29T00:59:32;47.30;;;21.23;;
43650;SDS011;29247;50.944;5.382;2023-01-29T01:01:59;39.17;;;20.08;;
43650;SDS011;29247;50.944;5.382;2023-01-29T01:04:43;46.13;;;20.38;;
43650;SDS011;29247;50.944;5.382;2023-01-29T01:07:08;41.83;;;21.65;;
43650;SDS011;29247;50.944;5.382;2023-01-29T01:09:35;42.63;;;21.27;;
43650;SDS011;29247;50.944;5.382;2023-01-29T01:12:19;39.45;;;18.25;;
43650;SDS011;29247;50.944;5.382;2023-01-29T01:14:47;37.67;;;18.00;;
43650;SDS011;29247;50.944;5.382;2023-01-29T01:17:12;44.25;;;20.50;;
43650;SDS011;29247;50.944;5.382;2023-01-29T01:19:42;40.70;;;18.40;;
43650;SDS011;29247;50.944;5.382;2023-01-29T01:22:10;43.17;;;21.52;;
43650;SDS011;29247;50.944;5.382;2023-01-29T01:24:36;34.47;;;17.80;;
43650;SDS011;29247;50.944;5.382;2023-01-29T01:27:02;40.90;;;18.50;;
43650;SDS011;29247;50.944;5.382;2023-01-29T01:29:28;37.55;;;18.30;;
43650;SDS011;29247;50.944;5.382;2023-01-29T01:31:54;42.17;;;19.50;;
43650;SDS011;29247;50.944;5.382;2023-01-29T01:34:20;38.35;;;17.73;;
43650;SDS011;29247;50.944;5.382;2023-01-29T01:36:46;41.72;;;19.30;;
43650;SDS011;29247;50.944;5.382;2023-01-29T01:39:12;37.88;;;19.13;;
43650;SDS011;29247;50.944;5.382;2023-01-29T01:41:38;35.83;;;18.52;;
43650;SDS011;29247;50.944;5.382;2023-01-29T01:44:06;32.40;;;17.58;;
43650;SDS011;29247;50.944;5.382;2023-01-29T01:46:35;37.25;;;18.08;;
43650;SDS011;29247;50.944;5.382;2023-01-29T01:49:09;29.07;;;15.13;;
43650;SDS011;29247;50.944;5.382;2023-01-29T01:51:43;40.75;;;18.88;;
43650;SDS011;29247;50.944;5.382;2023-01-29T01:54:13;40.22;;;18.38;;
43650;SDS011;29247;50.944;5.382;2023-01-29T01:56:53;37.00;;;17.58;;
43650;SDS011;29247;50.944;5.382;2023-01-29T01:59:35;38.15;;;18.20;;
43650;SDS011;29247;50.944;5.382;2023-01-29T02:02:02;41.90;;;19.00;;
43650;SDS011;29247;50.944;5.382;2023-01-29T02:04:51;45.25;;;19.48;;
43650;SDS011;29247;50.944;5.382;2023-01-29T02:07:39;37.42;;;17.15;;
43650;SDS011;29247;50.944;5.382;2023-01-29T02:10:25;37.47;;;18.15;;
43650;SDS011;29247;50.944;5.382;2023-01-29T02:12:53;37.60;;;19.40;;
43650;SDS011;29247;50.944;5.382;2023-01-29T02:15:25;39.53;;;17.77;;
43650;SDS011;29247;50.944;5.382;2023-01-29T02:17:51;42.88;;;19.88;;
43650;SDS011;29247;50.944;5.382;2023-01-29T02:20:26;36.75;;;18.92;;
43650;SDS011;29247;50.944;5.382;2023-01-29T02:34:00;38.80;;;18.80;;
43650;SDS011;29247;50.944;5.382;2023-01-29T02:37:03;50.30;;;20.05;;
43650;SDS011;29247;50.944;5.382;2023-01-29T02:42:15;38.53;;;16.40;;
43650;SDS011;29247;50.944;5.382;2023-01-29T02:44:47;37.30;;;17.10;;
43650;SDS011;29247;50.944;5.382;2023-01-29T02:47:47;37.85;;;17.13;;
43650;SDS011;29247;50.944;5.382;2023-01-29T02:50:42;39.65;;;18.25;;
43650;SDS011;29247;50.944;5.382;2023-01-29T02:53:40;43.22;;;18.83;;
43650;SDS011;29247;50.944;5.382;2023-01-29T02:56:26;45.78;;;16.75;;
43650;SDS011;29247;50.944;5.382;2023-01-29T02:59:06;37.65;;;16.45;;
43650;SDS011;29247;50.944;5.382;2023-01-29T03:01:45;34.70;;;18.65;;
43650;SDS011;29247;50.944;5.382;2023-01-29T03:04:17;34.75;;;18.30;;
43650;SDS011;29247;50.944;5.382;2023-01-29T03:06:48;40.40;;;16.63;;
43650;SDS011;29247;50.944;5.382;2023-01-29T03:09:19;34.20;;;18.13;;
43650;SDS011;29247;50.944;5.382;2023-01-29T03:11:51;34.78;;;17.58;;
43650;SDS011;29247;50.944;5.382;2023-01-29T03:14:24;38.65;;;18.52;;
43650;SDS011;29247;50.944;5.382;2023-01-29T03:17:20;31.33;;;16.35;;
43650;SDS011;29247;50.944;5.382;2023-01-29T03:19:50;37.53;;;16.33;;
43650;SDS011;29247;50.944;5.382;2023-01-29T03:22:16;39.88;;;16.52;;
43650;SDS011;29247;50.944;5.382;2023-01-29T03:24:52;43.85;;;18.13;;
43650;SDS011;29247;50.944;5.382;2023-01-29T03:27:50;36.42;;;16.98;;
43650;SDS011;29247;50.944;5.382;2023-01-29T03:30:40;40.65;;;17.38;;
43650;SDS011;29247;50.944;5.382;2023-01-29T03:33:29;45.63;;;19.13;;
43650;SDS011;29247;50.944;5.382;2023-01-29T03:36:01;39.25;;;16.65;;
43650;SDS011;29247;50.944;5.382;2023-01-29T03:38:33;38.60;;;17.92;;
43650;SDS011;29247;50.944;5.382;2023-01-29T03:43:38;41.03;;;18.35;;
43650;SDS011;29247;50.944;5.382;2023-01-29T03:49:00;34.85;;;16.52;;
43650;SDS011;29247;50.944;5.382;2023-01-29T03:51:49;38.50;;;17.83;;
43650;SDS011;29247;50.944;5.382;2023-01-29T03:59:57;33.15;;;14.95;;
43650;SDS011;29247;50.944;5.382;2023-01-29T04:05:52;40.17;;;17.75;;
43650;SDS011;29247;50.944;5.382;2023-01-29T04:08:26;41.70;;;17.83;;
43650;SDS011;29247;50.944;5.382;2023-01-29T04:10:55;37.80;;;17.58;;
43650;SDS011;29247;50.944;5.382;2023-01-29T04:13:24;36.40;;;16.60;;
43650;SDS011;29247;50.944;5.382;2023-01-29T04:15:57;30.77;;;13.65;;
43650;SDS011;29247;50.944;5.382;2023-01-29T04:18:24;37.05;;;17.20;;
43650;SDS011;29247;50.944;5.382;2023-01-29T04:20:50;40.30;;;17.15;;
43650;SDS011;29247;50.944;5.382;2023-01-29T04:23:23;38.60;;;17.15;;
43650;SDS011;29247;50.944;5.382;2023-01-29T04:42:54;38.08;;;18.27;;
43650;SDS011;29247;50.944;5.382;2023-01-29T04:48:18;38.13;;;17.05;;
43650;SDS011;29247;50.944;5.382;2023-01-29T04:58:24;39.22;;;18.05;;
43650;SDS011;29247;50.944;5.382;2023-01-29T05:01:17;36.33;;;16.48;;
43650;SDS011;29247;50.944;5.382;2023-01-29T05:03:48;37.45;;;16.90;;
43650;SDS011;29247;50.944;5.382;2023-01-29T05:06:16;40.85;;;17.75;;
43650;SDS011;29247;50.944;5.382;2023-01-29T05:08:43;45.63;;;16.30;;
43650;SDS011;29247;50.944;5.382;2023-01-29T05:11:09;38.35;;;16.52;;
43650;SDS011;29247;50.944;5.382;2023-01-29T05:13:38;36.70;;;16.15;;
43650;SDS011;29247;50.944;5.382;2023-01-29T05:19:10;33.75;;;16.15;;
43650;SDS011;29247;50.944;5.382;2023-01-29T05:21:38;41.20;;;17.55;;
43650;SDS011;29247;50.944;5.382;2023-01-29T05:24:10;42.33;;;19.65;;
43650;SDS011;29247;50.944;5.382;2023-01-29T05:26:38;38.97;;;17.25;;
43650;SDS011;29247;50.944;5.382;2023-01-29T05:29:23;38.58;;;15.13;;
43650;SDS011;29247;50.944;5.382;2023-01-29T05:31:51;36.97;;;15.52;;
43650;SDS011;29247;50.944;5.382;2023-01-29T05:34:20;35.40;;;17.08;;
43650;SDS011;29247;50.944;5.382;2023-01-29T05:36:48;35.90;;;16.45;;
43650;SDS011;29247;50.944;5.382;2023-01-29T05:39:15;36.85;;;17.17;;
43650;SDS011;29247;50.944;5.382;2023-01-29T05:41:41;40.60;;;16.33;;
43650;SDS011;29247;50.944;5.382;2023-01-29T05:44:13;36.45;;;16.58;;
43650;SDS011;29247;50.944;5.382;2023-01-29T05:46:41;35.97;;;14.57;;
43650;SDS011;29247;50.944;5.382;2023-01-29T05:49:11;34.65;;;16.45;;
43650;SDS011;29247;50.944;5.382;2023-01-29T05:51:37;38.45;;;16.17;;
43650;SDS011;29247;50.944;5.382;2023-01-29T05:54:03;36.95;;;14.95;;
43650;SDS011;29247;50.944;5.382;2023-01-29T05:56:31;40.17;;;16.65;;
43650;SDS011;29247;50.944;5.382;2023-01-29T05:58:59;35.90;;;15.68;;
43650;SDS011;29247;50.944;5.382;2023-01-29T06:01:27;34.20;;;14.57;;
43650;SDS011;29247;50.944;5.382;2023-01-29T06:03:53;41.53;;;16.60;;
43650;SDS011;29247;50.944;5.382;2023-01-29T06:06:19;37.15;;;15.60;;
43650;SDS011;29247;50.944;5.382;2023-01-29T06:08:47;39.55;;;17.50;;
43650;SDS011;29247;50.944;5.382;2023-01-29T06:11:13;41.75;;;17.77;;
43650;SDS011;29247;50.944;5.382;2023-01-29T06:13:40;38.60;;;16.52;;
43650;SDS011;29247;50.944;5.382;2023-01-29T06:16:06;33.67;;;15.45;;
43650;SDS011;29247;50.944;5.382;2023-01-29T06:18:34;41.75;;;16.58;;
43650;SDS011;29247;50.944;5.382;2023-01-29T06:21:00;41.38;;;16.90;;
43650;SDS011;29247;50.944;5.382;2023-01-29T06:23:27;41.90;;;17.10;;
43650;SDS011;29247;50.944;5.382;2023-01-29T06:25:57;40.95;;;16.80;;
43650;SDS011;29247;50.944;5.382;2023-01-29T06:28:46;38.53;;;15.30;;
43650;SDS011;29247;50.944;5.382;2023-01-29T06:31:12;30.95;;;14.50;;
43650;SDS011;29247;50.944;5.382;2023-01-29T06:33:38;33.03;;;15.52;;
43650;SDS011;29247;50.944;5.382;2023-01-29T06:36:04;42.33;;;17.42;;
43650;SDS011;29247;50.944;5.382;2023-01-29T06:38:32;35.35;;;14.63;;
43650;SDS011;29247;50.944;5.382;2023-01-29T06:40:58;35.63;;;16.63;;
43650;SDS011;29247;50.944;5.382;2023-01-29T06:43:27;40.30;;;16.50;;
43650;SDS011;29247;50.944;5.382;2023-01-29T06:45:53;43.28;;;16.98;;
43650;SDS011;29247;50.944;5.382;2023-01-29T06:48:21;40.85;;;16.67;;
43650;SDS011;29247;50.944;5.382;2023-01-29T06:50:47;36.75;;;15.88;;
43650;SDS011;29247;50.944;5.382;2023-01-29T06:53:17;30.60;;;11.88;;
43650;SDS011;29247;50.944;5.382;2023-01-29T06:55:49;36.90;;;16.58;;
43650;SDS011;29247;50.944;5.382;2023-01-29T06:58:17;40.35;;;16.55;;
43650;SDS011;29247;50.944;5.382;2023-01-29T07:00:44;34.85;;;15.07;;
43650;SDS011;29247;50.944;5.382;2023-01-29T07:03:13;40.78;;;16.13;;
43650;SDS011;29247;50.944;5.382;2023-01-29T07:05:38;33.55;;;15.20;;
43650;SDS011;29247;50.944;5.382;2023-01-29T07:08:06;40.55;;;15.65;;
43650;SDS011;29247;50.944;5.382;2023-01-29T07:10:33;42.10;;;17.20;;
43650;SDS011;29247;50.944;5.382;2023-01-29T07:13:01;39.30;;;16.05;;
43650;SDS011;29247;50.944;5.382;2023-01-29T07:15:29;40.70;;;17.73;;
43650;SDS011;29247;50.944;5.382;2023-01-29T07:20:36;37.08;;;15.90;;
43650;SDS011;29247;50.944;5.382;2023-01-29T07:23:05;39.47;;;16.77;;
43650;SDS011;29247;50.944;5.382;2023-01-29T07:25:34;40.45;;;17.15;;
43650;SDS011;29247;50.944;5.382;2023-01-29T07:28:00;36.10;;;16.67;;
43650;SDS011;29247;50.944;5.382;2023-01-29T07:30:27;44.58;;;17.08;;
43650;SDS011;29247;50.944;5.382;2023-01-29T07:32:53;46.88;;;18.27;;
43650;SDS011;29247;50.944;5.382;2023-01-29T07:35:21;39.55;;;16.50;;
43650;SDS011;29247;50.944;5.382;2023-01-29T07:37:49;38.38;;;17.92;;
43650;SDS011;29247;50.944;5.382;2023-01-29T07:40:17;40.85;;;17.88;;
43650;SDS011;29247;50.944;5.382;2023-01-29T07:42:45;40.05;;;17.55;;
43650;SDS011;29247;50.944;5.382;2023-01-29T07:45:11;36.53;;;16.40;;
43650;SDS011;29247;50.944;5.382;2023-01-29T07:47:39;37.60;;;16.00;;
43650;SDS011;29247;50.944;5.382;2023-01-29T07:50:05;35.80;;;15.50;;
43650;SDS011;29247;50.944;5.382;2023-01-29T07:52:31;37.80;;;15.75;;
43650;SDS011;29247;50.944;5.382;2023-01-29T07:54:58;46.47;;;17.83;;
43650;SDS011;29247;50.944;5.382;2023-01-29T07:57:24;39.00;;;16.92;;
43650;SDS011;29247;50.944;5.382;2023-01-29T07:59:52;44.80;;;17.55;;
43650;SDS011;29247;50.944;5.382;2023-01-29T08:02:18;40.30;;;16.15;;
43650;SDS011;29247;50.944;5.382;2023-01-29T08:04:46;38.45;;;17.58;;
43650;SDS011;29247;50.944;5.382;2023-01-29T08:07:11;36.72;;;17.83;;
43650;SDS011;29247;50.944;5.382;2023-01-29T08:09:37;35.53;;;15.55;;
43650;SDS011;29247;50.944;5.382;2023-01-29T08:12:03;43.63;;;17.65;;
43650;SDS011;29247;50.944;5.382;2023-01-29T08:14:31;38.80;;;16.45;;
43650;SDS011;29247;50.944;5.382;2023-01-29T08:16:57;36.33;;;16.75;;
43650;SDS011;29247;50.944;5.382;2023-01-29T08:19:23;40.65;;;16.83;;
43650;SDS011;29247;50.944;5.382;2023-01-29T08:21:49;38.85;;;16.88;;
43650;SDS011;29247;50.944;5.382;2023-01-29T08:24:15;40.05;;;16.30;;
43650;SDS011;29247;50.944;5.382;2023-01-29T08:26:40;36.90;;;17.05;;
43650;SDS011;29247;50.944;5.382;2023-01-29T08:29:06;38.33;;;16.67;;
43650;SDS011;29247;50.944;5.382;2023-01-29T08:31:32;42.45;;;16.15;;
43650;SDS011;29247;50.944;5.382;2023-01-29T08:34:00;42.20;;;17.13;;
43650;SDS011;29247;50.944;5.382;2023-01-29T08:36:26;45.05;;;17.08;;
43650;SDS011;29247;50.944;5.382;2023-01-29T08:38:51;39.53;;;16.05;;
43650;SDS011;29247;50.944;5.382;2023-01-29T08:41:22;37.50;;;15.43;;
43650;SDS011;29247;50.944;5.382;2023-01-29T08:43:47;37.90;;;15.75;;
43650;SDS011;29247;50.944;5.382;2023-01-29T08:46:16;45.40;;;17.30;;
43650;SDS011;29247;50.944;5.382;2023-01-29T08:48:44;45.85;;;18.50;;
43650;SDS011;29247;50.944;5.382;2023-01-29T08:51:12;39.72;;;16.15;;
43650;SDS011;29247;50.944;5.382;2023-01-29T08:53:40;43.63;;;16.77;;
43650;SDS011;29247;50.944;5.382;2023-01-29T08:56:06;36.35;;;14.82;;
43650;SDS011;29247;50.944;5.382;2023-01-29T08:58:32;42.33;;;16.42;;
43650;SDS011;29247;50.944;5.382;2023-01-29T09:01:07;47.03;;;17.92;;
43650;SDS011;29247;50.944;5.382;2023-01-29T09:03:34;42.63;;;16.75;;
43650;SDS011;29247;50.944;5.382;2023-01-29T09:08:31;38.55;;;16.15;;
43650;SDS011;29247;50.944;5.382;2023-01-29T09:11:06;42.75;;;17.95;;
43650;SDS011;29247;50.944;5.382;2023-01-29T09:13:32;43.03;;;17.08;;
43650;SDS011;29247;50.944;5.382;2023-01-29T09:16:02;40.03;;;16.33;;
43650;SDS011;29247;50.944;5.382;2023-01-29T09:18:31;51.20;;;18.85;;
43650;SDS011;29247;50.944;5.382;2023-01-29T09:20:57;44.58;;;18.08;;
43650;SDS011;29247;50.944;5.382;2023-01-29T09:23:26;39.20;;;16.42;;
43650;SDS011;29247;50.944;5.382;2023-01-29T09:25:54;37.72;;;16.70;;
43650;SDS011;29247;50.944;5.382;2023-01-29T09:28:20;44.33;;;17.13;;
43650;SDS011;29247;50.944;5.382;2023-01-29T09:30:46;40.03;;;16.92;;
43650;SDS011;29247;50.944;5.382;2023-01-29T09:33:12;41.35;;;17.58;;
43650;SDS011;29247;50.944;5.382;2023-01-29T09:35:41;42.00;;;16.60;;
43650;SDS011;29247;50.944;5.382;2023-01-29T09:38:08;42.70;;;15.90;;
43650;SDS011;29247;50.944;5.382;2023-01-29T09:40:48;39.83;;;16.10;;
43650;SDS011;29247;50.944;5.382;2023-01-29T09:48:55;43.78;;;18.73;;
43650;SDS011;29247;50.944;5.382;2023-01-29T09:51:31;46.95;;;17.58;;
43650;SDS011;29247;50.944;5.382;2023-01-29T09:54:07;40.35;;;17.35;;
43650;SDS011;29247;50.944;5.382;2023-01-29T09:56:54;51.90;;;18.38;;
43650;SDS011;29247;50.944;5.382;2023-01-29T09:59:25;48.15;;;17.45;;
43650;SDS011;29247;50.944;5.382;2023-01-29T10:04:54;43.30;;;16.05;;
43650;SDS011;29247;50.944;5.382;2023-01-29T10:07:50;40.65;;;15.55;;
43650;SDS011;29247;50.944;5.382;2023-01-29T10:14:01;41.38;;;16.20;;
43650;SDS011;29247;50.944;5.382;2023-01-29T10:26:50;44.83;;;16.85;;
43650;SDS011;29247;50.944;5.382;2023-01-29T10:29:22;37.42;;;14.80;;
43650;SDS011;29247;50.944;5.382;2023-01-29T10:31:51;39.28;;;15.88;;
43650;SDS011;29247;50.944;5.382;2023-01-29T10:34:41;43.22;;;15.65;;
43650;SDS011;29247;50.944;5.382;2023-01-29T10:37:25;34.35;;;14.20;;
43650;SDS011;29247;50.944;5.382;2023-01-29T10:42:45;43.65;;;16.88;;
43650;SDS011;29247;50.944;5.382;2023-01-29T10:45:33;37.17;;;14.40;;
43650;SDS011;29247;50.944;5.382;2023-01-29T10:50:53;40.10;;;16.27;;
43650;SDS011;29247;50.944;5.382;2023-01-29T10:58:54;41.65;;;16.20;;
43650;SDS011;29247;50.944;5.382;2023-01-29T11:01:25;38.65;;;14.93;;
43650;SDS011;29247;50.944;5.382;2023-01-29T11:03:56;41.03;;;15.20;;
43650;SDS011;29247;50.944;5.382;2023-01-29T11:06:31;35.65;;;15.15;;
43650;SDS011;29247;50.944;5.382;2023-01-29T11:17:00;39.00;;;14.77;;
43650;SDS011;29247;50.944;5.382;2023-01-29T11:19:36;39.97;;;16.30;;
43650;SDS011;29247;50.944;5.382;2023-01-29T11:22:11;35.90;;;14.25;;
43650;SDS011;29247;50.944;5.382;2023-01-29T11:24:38;34.67;;;14.50;;
43650;SDS011;29247;50.944;5.382;2023-01-29T11:27:12;34.60;;;15.50;;
43650;SDS011;29247;50.944;5.382;2023-01-29T11:29:54;35.75;;;15.82;;
43650;SDS011;29247;50.944;5.382;2023-01-29T11:32:24;38.35;;;14.90;;
43650;SDS011;29247;50.944;5.382;2023-01-29T11:35:03;47.92;;;16.27;;
43650;SDS011;29247;50.944;5.382;2023-01-29T11:37:47;38.35;;;15.35;;
43650;SDS011;29247;50.944;5.382;2023-01-29T11:42:48;33.33;;;14.90;;
43650;SDS011;29247;50.944;5.382;2023-01-29T11:47:54;32.28;;;13.85;;
43650;SDS011;29247;50.944;5.382;2023-01-29T11:50:23;39.42;;;14.57;;
43650;SDS011;29247;50.944;5.382;2023-01-29T11:52:51;40.72;;;15.20;;
43650;SDS011;29247;50.944;5.382;2023-01-29T11:55:18;32.35;;;13.57;;
43650;SDS011;29247;50.944;5.382;2023-01-29T11:58:00;37.55;;;15.10;;
43650;SDS011;29247;50.944;5.382;2023-01-29T12:00:30;38.47;;;16.65;;
43650;SDS011;29247;50.944;5.382;2023-01-29T12:03:10;37.00;;;15.13;;
43650;SDS011;29247;50.944;5.382;2023-01-29T12:05:39;37.63;;;14.85;;
43650;SDS011;29247;50.944;5.382;2023-01-29T12:08:13;34.28;;;14.43;;
43650;SDS011;29247;50.944;5.382;2023-01-29T12:10:44;34.97;;;14.73;;
43650;SDS011;29247;50.944;5.382;2023-01-29T12:15:42;38.25;;;13.60;;
43650;SDS011;29247;50.944;5.382;2023-01-29T12:21:09;36.63;;;15.23;;
43650;SDS011;29247;50.944;5.382;2023-01-29T12:23:46;30.52;;;15.02;;
43650;SDS011;29247;50.944;5.382;2023-01-29T12:35:13;35.00;;;13.73;;
43650;SDS011;29247;50.944;5.382;2023-01-29T12:40:18;35.08;;;15.77;;
43650;SDS011;29247;50.944;5.382;2023-01-29T12:42:49;40.70;;;14.75;;
43650;SDS011;29247;50.944;5.382;2023-01-29T12:45:20;41.85;;;14.50;;
43650;SDS011;29247;50.944;5.382;2023-01-29T12:47:50;33.83;;;13.75;;
43650;SDS011;29247;50.944;5.382;2023-01-29T12:50:26;40.00;;;16.13;;
43650;SDS011;29247;50.944;5.382;2023-01-29T12:58:25;41.08;;;14.93;;
43650;SDS011;29247;50.944;5.382;2023-01-29T13:00:53;46.38;;;16.90;;
43650;SDS011;29247;50.944;5.382;2023-01-29T13:05:50;33.53;;;14.15;;
43650;SDS011;29247;50.944;5.382;2023-01-29T13:09:37;38.22;;;15.88;;
43650;SDS011;29247;50.944;5.382;2023-01-29T13:12:12;41.08;;;15.70;;
43650;SDS011;29247;50.944;5.382;2023-01-29T13:14:48;40.17;;;15.32;;
43650;SDS011;29247;50.944;5.382;2023-01-29T13:19:52;41.55;;;16.73;;
43650;SDS011;29247;50.944;5.382;2023-01-29T13:22:24;36.80;;;13.85;;
43650;SDS011;29247;50.944;5.382;2023-01-29T13:24:52;36.30;;;13.80;;
43650;SDS011;29247;50.944;5.382;2023-01-29T13:27:20;36.20;;;13.65;;
43650;SDS011;29247;50.944;5.382;2023-01-29T13:29:55;37.63;;;14.05;;
43650;SDS011;29247;50.944;5.382;2023-01-29T13:32:28;31.42;;;13.20;;
43650;SDS011;29247;50.944;5.382;2023-01-29T13:35:05;35.05;;;13.35;;
43650;SDS011;29247;50.944;5.382;2023-01-29T13:37:41;27.05;;;12.23;;
43650;SDS011;29247;50.944;5.382;2023-01-29T13:42:54;30.27;;;12.60;;
43650;SDS011;29247;50.944;5.382;2023-01-29T13:48:16;28.88;;;12.88;;
43650;SDS011;29247;50.944;5.382;2023-01-29T13:53:19;27.67;;;11.75;;
43650;SDS011;29247;50.944;5.382;2023-01-29T13:55:53;25.63;;;12.65;;
43650;SDS011;29247;50.944;5.382;2023-01-29T14:00:58;28.08;;;11.73;;
43650;SDS011;29247;50.944;5.382;2023-01-29T14:08:38;35.20;;;12.95;;
43650;SDS011;29247;50.944;5.382;2023-01-29T14:13:43;27.52;;;12.70;;
43650;SDS011;29247;50.944;5.382;2023-01-29T14:18:56;23.85;;;11.93;;
43650;SDS011;29247;50.944;5.382;2023-01-29T14:21:35;27.15;;;12.30;;
43650;SDS011;29247;50.944;5.382;2023-01-29T14:24:10;28.67;;;13.00;;
43650;SDS011;29247;50.944;5.382;2023-01-29T14:26:44;26.02;;;13.18;;
43650;SDS011;29247;50.944;5.382;2023-01-29T14:29:23;26.98;;;13.38;;
43650;SDS011;29247;50.944;5.382;2023-01-29T14:32:25;31.30;;;13.63;;
43650;SDS011;29247;50.944;5.382;2023-01-29T14:34:48;28.55;;;12.60;;
43650;SDS011;29247;50.944;5.382;2023-01-29T14:39:49;32.53;;;12.77;;
43650;SDS011;29247;50.944;5.382;2023-01-29T14:47:20;28.52;;;13.63;;
43650;SDS011;29247;50.944;5.382;2023-01-29T14:50:40;29.08;;;12.35;;
43650;SDS011;29247;50.944;5.382;2023-01-29T14:58:13;28.08;;;13.27;;
43650;SDS011;29247;50.944;5.382;2023-01-29T15:00:44;26.27;;;12.43;;
43650;SDS011;29247;50.944;5.382;2023-01-29T15:03:28;29.20;;;13.38;;
43650;SDS011;29247;50.944;5.382;2023-01-29T15:06:01;24.83;;;12.77;;
43650;SDS011;29247;50.944;5.382;2023-01-29T15:08:35;25.00;;;11.88;;
43650;SDS011;29247;50.944;5.382;2023-01-29T15:11:03;25.73;;;11.88;;
43650;SDS011;29247;50.944;5.382;2023-01-29T15:14:05;27.67;;;12.73;;
43650;SDS011;29247;50.944;5.382;2023-01-29T15:19:41;24.15;;;11.77;;
43650;SDS011;29247;50.944;5.382;2023-01-29T15:22:18;31.45;;;14.63;;
43650;SDS011;29247;50.944;5.382;2023-01-29T15:25:12;26.90;;;12.80;;
43650;SDS011;29247;50.944;5.382;2023-01-29T15:27:41;31.25;;;13.52;;
43650;SDS011;29247;50.944;5.382;2023-01-29T15:32:58;31.35;;;14.57;;
43650;SDS011;29247;50.944;5.382;2023-01-29T15:35:33;29.52;;;13.23;;
43650;SDS011;29247;50.944;5.382;2023-01-29T15:40:29;29.27;;;13.60;;
43650;SDS011;29247;50.944;5.382;2023-01-29T15:42:56;29.83;;;12.65;;
43650;SDS011;29247;50.944;5.382;2023-01-29T15:45:23;29.70;;;12.63;;
43650;SDS011;29247;50.944;5.382;2023-01-29T15:47:56;33.97;;;12.55;;
43650;SDS011;29247;50.944;5.382;2023-01-29T15:50:26;29.08;;;13.38;;
43650;SDS011;29247;50.944;5.382;2023-01-29T15:52:55;30.02;;;12.85;;
43650;SDS011;29247;50.944;5.382;2023-01-29T15:55:25;28.33;;;12.80;;
43650;SDS011;29247;50.944;5.382;2023-01-29T15:57:51;26.23;;;13.43;;
43650;SDS011;29247;50.944;5.382;2023-01-29T16:00:22;29.30;;;13.47;;
43650;SDS011;29247;50.944;5.382;2023-01-29T16:02:51;28.15;;;13.15;;
43650;SDS011;29247;50.944;5.382;2023-01-29T16:05:22;31.17;;;12.93;;
43650;SDS011;29247;50.944;5.382;2023-01-29T16:07:51;30.80;;;13.00;;
43650;SDS011;29247;50.944;5.382;2023-01-29T16:10:30;31.95;;;13.18;;
43650;SDS011;29247;50.944;5.382;2023-01-29T16:12:58;28.48;;;13.32;;
43650;SDS011;29247;50.944;5.382;2023-01-29T16:15:32;28.80;;;13.85;;
43650;SDS011;29247;50.944;5.382;2023-01-29T16:18:03;33.05;;;14.85;;
43650;SDS011;29247;50.944;5.382;2023-01-29T16:20:45;28.08;;;12.73;;
43650;SDS011;29247;50.944;5.382;2023-01-29T16:23:19;28.70;;;13.00;;
43650;SDS011;29247;50.944;5.382;2023-01-29T16:25:49;30.40;;;14.25;;
43650;SDS011;29247;50.944;5.382;2023-01-29T16:28:15;30.35;;;13.63;;
43650;SDS011;29247;50.944;5.382;2023-01-29T16:30:42;25.52;;;12.02;;
43650;SDS011;29247;50.944;5.382;2023-01-29T16:33:13;31.83;;;13.45;;
43650;SDS011;29247;50.944;5.382;2023-01-29T16:35:41;35.72;;;13.13;;
43650;SDS011;29247;50.944;5.382;2023-01-29T16:38:18;32.97;;;12.68;;
43650;SDS011;29247;50.944;5.382;2023-01-29T16:41:05;26.80;;;12.82;;
43650;SDS011;29247;50.944;5.382;2023-01-29T16:48:41;29.75;;;13.13;;
43650;SDS011;29247;50.944;5.382;2023-01-29T16:51:14;27.67;;;12.65;;
43650;SDS011;29247;50.944;5.382;2023-01-29T16:53:54;28.25;;;11.85;;
43650;SDS011;29247;50.944;5.382;2023-01-29T16:56:24;29.08;;;13.38;;
43650;SDS011;29247;50.944;5.382;2023-01-29T16:58:53;32.55;;;13.40;;
43650;SDS011;29247;50.944;5.382;2023-01-29T17:01:23;28.08;;;11.88;;
43650;SDS011;29247;50.944;5.382;2023-01-29T17:03:57;29.48;;;12.77;;
43650;SDS011;29247;50.944;5.382;2023-01-29T17:06:31;32.05;;;14.02;;
43650;SDS011;29247;50.944;5.382;2023-01-29T17:09:00;25.52;;;11.63;;
43650;SDS011;29247;50.944;5.382;2023-01-29T17:11:39;27.92;;;12.27;;
43650;SDS011;29247;50.944;5.382;2023-01-29T17:14:10;28.60;;;13.10;;
43650;SDS011;29247;50.944;5.382;2023-01-29T17:16:53;25.48;;;11.80;;
43650;SDS011;29247;50.944;5.382;2023-01-29T17:19:20;27.27;;;13.40;;
43650;SDS011;29247;50.944;5.382;2023-01-29T17:21:49;27.05;;;12.32;;
43650;SDS011;29247;50.944;5.382;2023-01-29T17:24:15;26.85;;;11.77;;
43650;SDS011;29247;50.944;5.382;2023-01-29T17:26:41;26.90;;;11.98;;
43650;SDS011;29247;50.944;5.382;2023-01-29T17:29:12;24.67;;;12.77;;
43650;SDS011;29247;50.944;5.382;2023-01-29T17:31:47;24.67;;;12.13;;
43650;SDS011;29247;50.944;5.382;2023-01-29T17:34:16;20.63;;;11.15;;
43650;SDS011;29247;50.944;5.382;2023-01-29T17:36:44;24.83;;;10.80;;
43650;SDS011;29247;50.944;5.382;2023-01-29T17:39:17;22.48;;;10.32;;
43650;SDS011;29247;50.944;5.382;2023-01-29T17:41:48;29.67;;;11.80;;
43650;SDS011;29247;50.944;5.382;2023-01-29T17:44:18;26.52;;;11.95;;
43650;SDS011;29247;50.944;5.382;2023-01-29T17:46:44;22.42;;;10.90;;
43650;SDS011;29247;50.944;5.382;2023-01-29T17:49:19;25.55;;;13.63;;
43650;SDS011;29247;50.944;5.382;2023-01-29T17:51:52;26.75;;;11.98;;
43650;SDS011;29247;50.944;5.382;2023-01-29T17:54:19;23.33;;;10.87;;